createdAt,value
2023-03-27T00:14:26.419Z,2.4
2023-03-27T00:29:26.420Z,2.2
2023-03-27T00:44:26.430Z,2.1
2023-03-27T00:59:26.416Z,1.9
2023-03-27T01:14:26.416Z,1.8
2023-03-27T01:29:26.412Z,1.6
2023-03-27T01:44:26.384Z,1.6
2023-03-27T01:59:26.414Z,1.5
2023-03-27T02:14:26.424Z,1.6
2023-03-27T02:29:26.425Z,1.4
2023-03-27T02:44:26.416Z,1.3
2023-03-27T02:59:26.458Z,1.3
2023-03-27T03:14:26.395Z,1.5
2023-03-27T03:29:26.432Z,1.6
2023-03-27T03:44:26.429Z,1.8
2023-03-27T03:59:26.428Z,1.8
2023-03-27T04:14:26.410Z,1.8
2023-03-27T04:29:26.419Z,1.9
2023-03-27T04:44:26.428Z,1.9
2023-03-27T04:59:26.421Z,1.9
2023-03-27T05:14:26.418Z,1.9
2023-03-27T05:29:26.412Z,1.9
2023-03-27T05:44:26.409Z,2
2023-03-27T05:59:26.425Z,2
2023-03-27T06:14:26.466Z,2
2023-03-27T06:29:26.421Z,2.1
2023-03-27T06:44:26.434Z,2.4
2023-03-27T06:59:26.422Z,2.4
2023-03-27T07:14:26.439Z,2.5
2023-03-27T07:29:26.399Z,2.8
2023-03-27T07:44:26.432Z,3.2
2023-03-27T07:59:26.404Z,3.6
2023-03-27T08:14:26.457Z,3.7
2023-03-27T08:29:26.430Z,3.6
2023-03-27T08:44:26.437Z,3.9
2023-03-27T08:59:26.436Z,4.1
2023-03-27T09:14:26.407Z,4.1
2023-03-27T09:29:26.367Z,4.6
2023-03-27T09:44:26.438Z,5.1
2023-03-27T09:59:26.406Z,4.9
2023-03-27T10:14:26.445Z,5.2
2023-03-27T10:29:26.424Z,3.6
2023-03-27T10:44:26.410Z,3.8
2023-03-27T10:59:38.583Z,3.9
2023-03-27T11:14:26.440Z,5.4
2023-03-27T11:29:26.438Z,2
2023-03-27T11:44:26.446Z,2.9
2023-03-27T11:59:26.420Z,3.9
2023-03-27T12:14:31.101Z,4.7
2023-03-27T12:29:26.417Z,5.4
2023-03-27T12:44:26.412Z,5.9
2023-03-27T12:59:26.430Z,4.7
2023-03-27T13:14:26.414Z,4.4
2023-03-27T13:29:26.423Z,3.6
2023-03-27T13:44:26.416Z,4.6
2023-03-27T13:59:27.980Z,5
2023-03-27T14:14:26.427Z,4.4
2023-03-27T14:29:26.414Z,4.5
2023-03-27T14:44:26.444Z,5.4
2023-03-27T14:59:26.462Z,7
2023-03-27T15:14:26.432Z,7.2
2023-03-27T15:29:26.439Z,5.9
2023-03-27T15:44:26.334Z,6.9
2023-03-27T15:59:26.422Z,7.6
2023-03-27T16:14:26.385Z,6.3
2023-03-27T16:29:26.435Z,5.9
2023-03-27T16:44:26.435Z,7.3
2023-03-27T16:59:26.437Z,5.8
2023-03-27T17:14:26.405Z,5.2
2023-03-27T17:29:26.337Z,5.1
2023-03-27T17:44:26.450Z,4.7
2023-03-27T17:59:26.431Z,4.6
2023-03-27T18:14:26.448Z,4.3
2023-03-27T18:29:26.423Z,4.1
2023-03-27T18:44:26.433Z,4
2023-03-27T18:59:26.434Z,3.8
2023-03-27T19:14:26.416Z,3.8
2023-03-27T19:29:26.410Z,3.7
2023-03-27T19:44:26.458Z,3.5
2023-03-27T19:59:30.654Z,3.2
2023-03-27T20:14:26.430Z,3
2023-03-27T20:29:26.418Z,2.8
2023-03-27T20:44:26.454Z,2.7
2023-03-27T20:59:26.419Z,2.5
2023-03-27T21:14:26.402Z,2.4
2023-03-27T21:29:26.427Z,2.3
2023-03-27T21:44:26.421Z,2.2
2023-03-27T21:59:26.334Z,2.1
2023-03-27T22:14:26.379Z,2
2023-03-27T22:29:26.435Z,1.7
2023-03-27T22:44:26.376Z,1.4
2023-03-27T22:59:26.476Z,1.4
2023-03-27T23:14:26.402Z,1.2
2023-03-27T23:29:26.442Z,1
2023-03-27T23:44:26.469Z,1
2023-03-27T23:59:26.426Z,0.8
